Time;durP1;ratioP1;P1;durP2;ratioP2;P2;SDS_P1;SDS_P2;PMS_P1;PMS_P2;Temp;Humidity;BMP_temperature;BMP_pressure;BME280_temperature;BME280_humidity;BME280_pressure;Samples;Min_cycle;Max_cycle;Signal;HPM_P1;HPM_P2
2022/07/06 00:01:10;;;;;;;2.45;1.75;;;;;;;16.51;47.80;102479.06;4982490;28;113741;-65
2022/07/06 00:03:37;;;;;;;3.13;1.70;;;;;;;16.50;47.85;102477.34;4976930;28;124133;-65
2022/07/06 00:06:05;;;;;;;3.33;1.75;;;;;;;16.49;47.94;102474.72;4990600;28;124751;-65
2022/07/06 00:08:32;;;;;;;3.90;1.95;;;;;;;16.46;48.02;102475.75;4976995;28;114117;-65
2022/07/06 00:11:00;;;;;;;5.68;1.90;;;;;;;16.43;48.00;102481.22;4991797;28;114284;-65
2022/07/06 00:13:27;;;;;;;2.85;1.73;;;;;;;16.39;48.07;102479.63;4990312;28;124465;-65
2022/07/06 00:15:55;;;;;;;2.88;1.70;;;;;;;16.38;48.16;102472.50;4970443;28;124656;-65
2022/07/06 00:18:22;;;;;;;4.10;1.83;;;;;;;16.36;48.30;102474.38;4982403;28;115153;-65
2022/07/06 00:20:50;;;;;;;3.15;1.85;;;;;;;16.35;48.46;102478.00;4974357;28;115046;-65
2022/07/06 00:23:17;;;;;;;3.80;1.80;;;;;;;16.32;48.61;102473.66;4981069;28;124150;-65
2022/07/06 00:25:44;;;;;;;2.92;1.92;;;;;;;16.32;48.62;102480.81;4992200;28;124273;-65
2022/07/06 00:28:12;;;;;;;2.92;1.70;;;;;;;16.27;48.54;102480.13;4983229;28;114228;-65
2022/07/06 00:30:39;;;;;;;3.22;1.70;;;;;;;16.26;48.59;102483.75;4987671;28;114219;-65
2022/07/06 00:33:06;;;;;;;3.70;2.00;;;;;;;16.23;48.57;102489.22;4990171;28;123153;-65
2022/07/06 00:35:34;;;;;;;2.50;1.95;;;;;;;16.19;48.73;102482.28;4986166;28;123297;-65
2022/07/06 00:38:01;;;;;;;3.53;2.15;;;;;;;16.15;48.78;102490.41;4978712;28;114813;-65
2022/07/06 00:40:29;;;;;;;5.80;2.20;;;;;;;16.13;49.01;102483.41;4985377;28;114355;-65
2022/07/06 00:42:57;;;;;;;5.45;2.50;;;;;;;16.10;49.04;102479.03;4978208;28;124083;-65
2022/07/06 00:45:24;;;;;;;4.00;2.45;;;;;;;16.08;49.01;102483.56;4989768;28;123984;-65
2022/07/06 00:47:51;;;;;;;2.95;2.20;;;;;;;16.07;48.99;102479.19;4990481;28;113514;-65
2022/07/06 00:50:22;;;;;;;5.53;2.67;;;;;;;16.04;49.29;102473.94;4992227;28;113915;-67
2022/07/06 00:52:52;;;;;;;6.72;2.47;;;;;;;16.03;49.41;102477.56;4991825;28;123122;-67
2022/07/06 00:55:24;;;;;;;3.58;2.28;;;;;;;15.98;49.38;102479.56;4975517;28;124604;-65
2022/07/06 00:57:51;;;;;;;6.07;2.60;;;;;;;15.99;49.41;102480.41;4990946;28;113335;-67
2022/07/06 01:00:20;;;;;;;4.43;2.45;;;;;;;15.94;49.39;102473.47;4975314;28;112853;-67
2022/07/06 01:02:48;;;;;;;8.45;2.90;;;;;;;15.93;49.63;102473.53;4991176;28;124355;-65
2022/07/06 01:05:16;;;;;;;5.15;2.97;;;;;;;15.91;49.80;102476.25;4975070;28;123816;-65
2022/07/06 01:07:45;;;;;;;5.28;2.70;;;;;;;15.91;50.05;102478.06;4974909;28;114459;-62
2022/07/06 01:10:14;;;;;;;5.10;2.80;;;;;;;15.90;50.02;102476.34;4991990;28;114736;-63
2022/07/06 01:12:43;;;;;;;6.45;2.60;;;;;;;15.89;50.16;102474.59;4990210;28;124265;-63
2022/07/06 01:15:13;;;;;;;6.13;2.60;;;;;;;15.88;50.25;102479.06;4991482;28;123346;-63
2022/07/06 01:17:42;;;;;;;7.10;3.15;;;;;;;15.88;50.20;102475.50;4989489;28;113215;-62
2022/07/06 01:20:29;;;;;;;4.47;2.95;;;;;;;15.86;50.06;102480.06;4989197;28;113129;-63
2022/07/06 01:22:59;;;;;;;7.13;3.10;;;;;;;15.86;50.00;102480.06;4990993;28;123652;-63
2022/07/06 01:25:27;;;;;;;5.60;2.80;;;;;;;15.83;49.96;102480.19;4989580;28;123924;-63
2022/07/06 01:27:54;;;;;;;4.05;2.85;;;;;;;15.80;50.13;102491.88;4981749;28;114401;-65
2022/07/06 01:30:21;;;;;;;7.03;3.15;;;;;;;15.76;50.09;102480.47;4978968;28;113652;-63
2022/07/06 01:32:48;;;;;;;6.15;3.00;;;;;;;15.73;50.17;102475.22;4986919;28;123980;-63
2022/07/06 01:35:16;;;;;;;6.38;2.88;;;;;;;15.70;50.16;102480.66;4988358;28;124368;-63
2022/07/06 01:37:43;;;;;;;4.13;2.60;;;;;;;15.66;50.39;102479.03;4988003;28;113926;-63
2022/07/06 01:40:12;;;;;;;8.32;3.10;;;;;;;15.63;50.24;102473.81;4978430;28;114348;-63
2022/07/06 01:42:39;;;;;;;6.80;2.95;;;;;;;15.61;50.40;102474.81;4969444;28;123616;-66
2022/07/06 01:45:07;;;;;;;4.38;2.70;;;;;;;15.59;50.48;102477.53;4957290;28;122721;-65
2022/07/06 01:47:36;;;;;;;5.55;2.97;;;;;;;15.56;50.62;102478.53;4990089;28;113845;-65
2022/07/06 01:50:06;;;;;;;4.45;2.90;;;;;;;15.54;50.82;102474.22;4990180;28;112857;-66
2022/07/06 01:52:36;;;;;;;5.15;3.03;;;;;;;15.52;50.71;102476.03;4990976;28;122464;-65
2022/07/06 01:55:04;;;;;;;6.47;3.15;;;;;;;15.51;50.78;102479.66;4989874;28;123189;-65
2022/07/06 01:57:33;;;;;;;6.80;3.13;;;;;;;15.50;50.80;102472.56;4990049;28;114462;-66
2022/07/06 02:00:00;;;;;;;5.72;2.90;;;;;;;15.48;50.87;102479.75;4973476;28;115099;-67
2022/07/06 02:02:28;;;;;;;4.65;3.10;;;;;;;15.47;50.89;102484.25;4971866;28;124794;-66
2022/07/06 02:04:55;;;;;;;5.85;3.03;;;;;;;15.45;50.89;102474.56;4985487;28;123451;-66
2022/07/06 02:07:22;;;;;;;5.88;3.05;;;;;;;15.44;50.90;102472.81;4991020;28;114094;-67
2022/07/06 02:09:50;;;;;;;3.90;3.03;;;;;;;15.40;51.02;102471.19;4975722;28;113917;-65
2022/07/06 02:12:17;;;;;;;4.93;3.13;;;;;;;15.35;51.04;102469.59;4989852;28;124559;-66
2022/07/06 02:14:44;;;;;;;7.20;3.70;;;;;;;15.32;51.19;102468.84;4990318;28;123196;-66
2022/07/06 02:17:12;;;;;;;4.55;3.10;;;;;;;15.28;51.39;102470.75;4969715;28;114156;-65
2022/07/06 02:19:40;;;;;;;4.35;3.08;;;;;;;15.26;51.44;102480.63;4980838;28;113240;-65
2022/07/06 02:22:07;;;;;;;5.75;3.13;;;;;;;15.24;51.52;102482.47;5003536;28;122890;-65
2022/07/06 02:24:34;;;;;;;6.22;3.55;;;;;;;15.21;51.48;102477.25;4991337;28;123952;-65
2022/07/06 02:27:01;;;;;;;4.97;3.33;;;;;;;15.20;51.72;102480.88;4989514;28;113857;-65
2022/07/06 02:29:29;;;;;;;5.40;3.28;;;;;;;15.16;51.61;102479.22;4989286;28;114626;-64
2022/07/06 02:31:56;;;;;;;6.68;3.38;;;;;;;15.13;51.61;102484.69;4989759;28;123444;-63
2022/07/06 02:34:24;;;;;;;5.28;3.60;;;;;;;15.11;51.85;102475.88;4990122;28;123183;-66
2022/07/06 02:36:53;;;;;;;4.68;3.25;;;;;;;15.08;51.73;102478.66;4978582;28;115077;-64
2022/07/06 02:39:21;;;;;;;5.72;3.42;;;;;;;15.06;51.76;102477.84;4985091;28;113459;-64
2022/07/06 02:41:49;;;;;;;7.38;3.50;;;;;;;15.05;51.97;102470.75;4988704;28;123006;-65
2022/07/06 02:44:16;;;;;;;5.00;3.08;;;;;;;15.04;51.96;102475.22;4989696;28;123093;-65
2022/07/06 02:46:43;;;;;;;5.60;3.65;;;;;;;15.03;51.91;102472.59;4988865;28;115427;-65
2022/07/06 02:49:10;;;;;;;5.72;3.63;;;;;;;15.01;52.10;102477.13;4989235;28;113676;-65
2022/07/06 02:51:38;;;;;;;4.47;3.15;;;;;;;15.01;52.21;102469.13;4989242;28;123219;-65
2022/07/06 02:54:05;;;;;;;5.78;3.60;;;;;;;14.96;52.27;102470.16;4983684;28;123107;-65
2022/07/06 02:56:32;;;;;;;4.88;3.30;;;;;;;14.95;52.27;102476.41;4970973;28;113884;-66
2022/07/06 02:59:00;;;;;;;6.20;3.58;;;;;;;14.94;52.39;102473.84;4988345;28;113053;-67
2022/07/06 03:01:28;;;;;;;6.97;3.30;;;;;;;14.93;52.31;102483.63;4989758;28;123312;-66
2022/07/06 03:03:55;;;;;;;5.13;3.50;;;;;;;14.91;52.26;102485.47;4975498;28;124632;-65
2022/07/06 03:06:22;;;;;;;5.47;3.50;;;;;;;14.89;52.20;102478.47;4989498;28;113497;-67
2022/07/06 03:08:50;;;;;;;5.53;3.60;;;;;;;14.86;52.52;102482.13;4985508;28;113841;-66
2022/07/06 03:11:17;;;;;;;5.85;3.40;;;;;;;14.84;52.49;102491.94;4977943;28;123202;-66
2022/07/06 03:13:45;;;;;;;6.90;3.28;;;;;;;14.81;52.59;102489.41;4988384;28;122884;-66
2022/07/06 03:16:13;;;;;;;6.78;4.00;;;;;;;14.80;52.72;102487.66;4988660;28;113115;-66
2022/07/06 03:18:40;;;;;;;5.65;3.33;;;;;;;14.78;52.59;102486.84;4984496;28;113487;-67
2022/07/06 03:21:07;;;;;;;5.13;3.35;;;;;;;14.77;52.70;102487.78;4969524;28;123949;-66
2022/07/06 03:23:34;;;;;;;6.72;3.50;;;;;;;14.74;52.65;102487.91;4988500;28;123045;-66
2022/07/06 03:26:02;;;;;;;6.10;3.28;;;;;;;14.72;52.75;102484.41;4987044;28;113471;-66
2022/07/06 03:28:30;;;;;;;7.55;3.50;;;;;;;14.70;52.81;102475.59;4988334;28;113695;-64
2022/07/06 03:30:58;;;;;;;6.95;3.30;;;;;;;14.69;52.98;102485.41;4988516;28;123634;-64
2022/07/06 03:33:25;;;;;;;6.68;3.40;;;;;;;14.68;53.07;102482.78;4992926;28;123336;-64
2022/07/06 03:35:53;;;;;;;7.20;3.30;;;;;;;14.69;52.98;102487.19;4981712;28;114251;-63
2022/07/06 03:38:20;;;;;;;6.15;3.15;;;;;;;14.69;53.14;102484.50;4992408;28;114274;-65
2022/07/06 03:40:47;;;;;;;7.07;3.42;;;;;;;14.69;53.26;102484.50;4983245;28;124473;-66
2022/07/06 03:43:15;;;;;;;5.43;2.90;;;;;;;14.70;53.34;102488.94;4972661;28;123103;-66
2022/07/06 03:45:42;;;;;;;4.70;3.10;;;;;;;14.71;53.30;102485.31;4976902;28;113343;-66
2022/07/06 03:48:09;;;;;;;6.22;3.17;;;;;;;14.71;53.24;102488.00;4990249;28;113019;-67
2022/07/06 03:50:39;;;;;;;4.95;3.05;;;;;;;14.71;53.38;102488.00;4956774;28;123101;-65
2022/07/06 03:53:07;;;;;;;5.72;2.90;;;;;;;14.72;53.40;102484.41;5004086;28;123042;-66
2022/07/06 03:55:35;;;;;;;5.25;3.05;;;;;;;14.72;53.47;102484.41;4986562;28;113446;-66
2022/07/06 03:58:06;;;;;;;6.93;3.30;;;;;;;14.74;53.46;102482.56;4974080;28;113191;-66
2022/07/06 04:00:36;;;;;;;5.65;3.22;;;;;;;14.76;53.66;102491.38;4987243;28;123354;-65
2022/07/06 04:03:07;;;;;;;7.22;3.35;;;;;;;14.79;53.62;102485.94;4992374;28;122951;-67
2022/07/06 04:05:40;;;;;;;7.78;3.47;;;;;;;14.84;53.88;102489.28;4992192;28;116395;-66
2022/07/06 04:08:08;;;;;;;5.65;3.00;;;;;;;14.88;53.98;102485.59;4989092;28;113512;-66
2022/07/06 04:10:41;;;;;;;7.28;3.22;;;;;;;14.93;53.94;102488.94;4992114;28;123168;-66
2022/07/06 04:13:08;;;;;;;5.97;3.00;;;;;;;15.02;53.95;102494.91;4993403;28;124039;-66
2022/07/06 04:15:36;;;;;;;3.75;2.70;;;;;;;15.09;53.94;102499.09;4992668;28;113947;-66
2022/07/06 04:18:03;;;;;;;5.68;2.90;;;;;;;15.15;54.46;102496.16;4992075;28;113251;-66
2022/07/06 04:20:37;;;;;;;4.57;2.80;;;;;;;15.24;54.39;102486.91;4989558;28;124226;-66
2022/07/06 04:23:04;;;;;;;6.15;3.28;;;;;;;15.34;54.28;102483.84;4964805;28;123017;-66
2022/07/06 04:25:31;;;;;;;6.20;2.90;;;;;;;15.43;54.49;102476.44;4991555;28;114070;-68
2022/07/06 04:28:01;;;;;;;5.20;3.20;;;;;;;15.52;54.42;102482.28;4983309;28;114422;-66
2022/07/06 04:30:31;;;;;;;4.22;3.13;;;;;;;15.63;54.61;102478.28;4991177;28;123179;-66
2022/07/06 04:33:02;;;;;;;4.88;2.88;;;;;;;15.72;54.60;102478.78;4983584;28;123002;-64
2022/07/06 04:35:32;;;;;;;6.03;2.80;;;;;;;15.81;54.62;102476.72;4987779;28;113647;-64
2022/07/06 04:38:00;;;;;;;5.93;3.10;;;;;;;15.89;54.41;102479.94;4991063;28;113001;-63
2022/07/06 04:40:28;;;;;;;6.40;2.90;;;;;;;15.97;54.40;102477.81;4985627;28;123384;-64
2022/07/06 04:42:59;;;;;;;5.32;3.00;;;;;;;16.04;54.37;102473.94;4991206;28;123099;-64
2022/07/06 04:45:28;;;;;;;4.63;2.90;;;;;;;16.10;54.40;102471.00;4992239;28;113496;-64
2022/07/06 04:47:56;;;;;;;7.45;3.00;;;;;;;16.18;54.33;102475.16;4988412;28;114149;-63
2022/07/06 04:50:24;;;;;;;5.20;2.88;;;;;;;16.24;54.33;102474.94;4976772;28;123146;-64
2022/07/06 04:52:53;;;;;;;7.95;3.10;;;;;;;16.30;54.44;102474.66;4979573;28;123154;-64
2022/07/06 04:55:21;;;;;;;5.07;2.92;;;;;;;16.36;54.35;102474.38;4975506;28;113484;-64
2022/07/06 04:57:48;;;;;;;8.45;3.00;;;;;;;16.41;54.38;102477.75;4991606;28;113223;-63
2022/07/06 05:00:17;;;;;;;7.38;3.08;;;;;;;16.48;54.58;102479.22;4987851;28;123119;-64
2022/07/06 05:02:47;;;;;;;4.50;2.70;;;;;;;16.53;54.41;102482.53;4980693;28;123376;-66
2022/07/06 05:05:15;;;;;;;4.70;3.13;;;;;;;16.60;54.36;102471.59;4989916;28;113750;-66
2022/07/06 05:07:43;;;;;;;9.75;3.28;;;;;;;16.65;54.25;102474.91;4979619;28;113811;-65
2022/07/06 05:10:11;;;;;;;4.55;2.85;;;;;;;16.69;54.31;102481.88;4990992;28;124552;-66
2022/07/06 05:12:42;;;;;;;6.63;2.72;;;;;;;16.73;54.19;102473.63;4991151;28;123036;-66
2022/07/06 05:15:10;;;;;;;5.88;2.88;;;;;;;16.78;54.32;102476.09;4991387;28;115312;-66
2022/07/06 05:17:37;;;;;;;5.18;3.00;;;;;;;16.83;54.30;102482.16;4974429;28;114824;-66
2022/07/06 05:20:06;;;;;;;6.10;2.90;;;;;;;16.88;54.57;102482.81;4979167;28;123493;-66
2022/07/06 05:22:37;;;;;;;6.18;2.75;;;;;;;16.91;54.35;102488.03;4988997;28;122911;-65
2022/07/06 05:25:13;;;;;;;6.50;2.70;;;;;;;16.98;54.40;102493.09;4991239;28;114129;-66
2022/07/06 05:27:41;;;;;;;7.05;2.55;;;;;;;17.02;54.28;102500.91;4990101;28;113508;-66
2022/07/06 05:30:09;;;;;;;4.85;2.67;;;;;;;17.06;54.38;102498.97;4991157;28;123505;-66
2022/07/06 05:32:37;;;;;;;6.47;2.63;;;;;;;17.11;54.30;102499.63;4991052;28;123339;-66
2022/07/06 05:35:05;;;;;;;9.80;3.17;;;;;;;17.16;54.19;102500.28;4991217;28;113319;-66
2022/07/06 05:37:53;;;;;;;4.63;2.58;;;;;;;17.21;54.27;102495.56;4977066;28;113027;-65
2022/07/06 05:40:20;;;;;;;3.67;2.35;;;;;;;17.27;54.16;102503.34;4986694;28;123628;-66
2022/07/06 05:42:48;;;;;;;4.78;2.63;;;;;;;17.35;54.14;102502.09;4980510;28;123256;-66
2022/07/06 05:45:16;;;;;;;5.47;2.60;;;;;;;17.41;54.19;102502.69;4990057;28;113287;-66
2022/07/06 05:50:34;;;;;;;6.47;2.30;;;;;;;17.57;54.22;102505.47;5002943;28;123260;-66
2022/07/06 05:53:04;;;;;;;3.75;2.40;;;;;;;17.63;54.14;102509.69;4989474;28;123232;-64
2022/07/06 05:55:44;;;;;;;5.20;2.30;;;;;;;17.70;53.94;102513.81;4983805;28;113418;-64
2022/07/06 05:58:12;;;;;;;4.68;2.60;;;;;;;17.76;53.91;102512.63;4976895;28;113198;-64
2022/07/06 06:00:41;;;;;;;3.10;2.10;;;;;;;17.83;54.01;102508.72;4986350;28;123378;-64
2022/07/06 06:03:13;;;;;;;3.97;2.30;;;;;;;17.91;53.88;102517.28;4971879;28;124074;-64
2022/07/06 06:05:41;;;;;;;5.22;2.00;;;;;;;18.01;53.90;102517.72;4989913;28;114345;-64
2022/07/06 06:08:10;;;;;;;3.88;2.40;;;;;;;18.11;53.81;102518.13;4990068;28;114311;-64
2022/07/06 06:10:37;;;;;;;7.88;2.20;;;;;;;18.23;53.80;102528.22;4990773;28;124891;-64
2022/07/06 06:13:08;;;;;;;6.60;2.22;;;;;;;18.34;53.64;102520.50;4990446;28;122981;-64
2022/07/06 06:15:36;;;;;;;5.95;2.38;;;;;;;18.45;53.34;102522.63;4974584;28;114418;-64
2022/07/06 06:18:04;;;;;;;5.50;2.30;;;;;;;18.55;53.18;102514.97;4989945;28;113126;-64
2022/07/06 06:20:32;;;;;;;3.47;2.25;;;;;;;18.66;53.04;102512.59;4990220;28;124119;-64
2022/07/06 06:22:59;;;;;;;3.88;1.98;;;;;;;18.78;53.11;102511.97;4983673;28;123854;-64
2022/07/06 06:25:32;;;;;;;6.57;2.03;;;;;;;18.94;53.10;102513.84;4982922;28;114580;-64
2022/07/06 06:28:00;;;;;;;4.15;2.00;;;;;;;19.08;52.34;102511.31;4970964;28;114036;-64
2022/07/06 06:30:27;;;;;;;3.35;1.83;;;;;;;19.18;52.14;102509.81;4984902;28;124065;-64
2022/07/06 06:33:08;;;;;;;3.78;2.03;;;;;;;19.30;52.34;102515.47;4988335;28;125209;-64
2022/07/06 06:35:37;;;;;;;3.40;1.90;;;;;;;19.42;51.97;102510.28;4990518;28;113113;-64
2022/07/06 06:38:04;;;;;;;3.40;1.77;;;;;;;19.54;51.81;102506.03;4988252;28;114344;-64
2022/07/06 06:40:31;;;;;;;3.60;1.95;;;;;;;19.69;51.61;102517.75;4983368;28;123857;-64
2022/07/06 06:42:58;;;;;;;2.97;1.42;;;;;;;19.84;51.63;102499.91;4990239;28;123793;-64
2022/07/06 06:45:26;;;;;;;2.47;1.60;;;;;;;20.00;51.18;102506.13;4990113;28;113804;-64
2022/07/06 06:47:53;;;;;;;3.22;1.70;;;;;;;20.16;51.04;102505.22;4990205;28;113234;-64
2022/07/06 06:50:22;;;;;;;3.72;1.50;;;;;;;20.33;50.79;102501.53;4989187;28;122857;-65
2022/07/06 06:52:50;;;;;;;2.22;1.50;;;;;;;20.51;50.55;102510.31;4978414;28;124013;-64
2022/07/06 06:55:18;;;;;;;3.03;2.05;;;;;;;20.65;50.19;102513.06;4988147;28;114308;-64
2022/07/06 06:57:45;;;;;;;3.15;1.70;;;;;;;20.77;49.99;102509.59;4990410;28;115120;-64
2022/07/06 07:00:13;;;;;;;4.07;1.80;;;;;;;20.90;49.70;102511.56;4989597;28;124125;-65
2022/07/06 07:02:41;;;;;;;2.80;1.75;;;;;;;21.01;49.26;102514.44;4977951;28;124742;-65
2022/07/06 07:05:08;;;;;;;2.72;1.45;;;;;;;21.09;48.98;102522.91;4981334;28;114124;-65
2022/07/06 07:07:36;;;;;;;1.98;0.90;;;;;;;21.13;48.25;102515.50;4981618;28;113940;-65
2022/07/06 07:10:05;;;;;;;1.80;1.00;;;;;;;21.13;48.23;102513.66;4970250;28;124210;-65
2022/07/06 07:12:33;;;;;;;2.83;0.88;;;;;;;21.18;48.09;102516.94;4975703;28;123690;-65
2022/07/06 07:15:01;;;;;;;2.17;1.00;;;;;;;21.24;48.23;102520.22;4988020;28;114088;-65
2022/07/06 07:17:28;;;;;;;3.28;1.30;;;;;;;21.33;48.32;102519.63;4975019;28;113878;-65
2022/07/06 07:19:57;;;;;;;1.70;1.27;;;;;;;21.43;48.23;102520.75;4988105;28;124694;-65
2022/07/06 07:22:24;;;;;;;3.10;0.98;;;;;;;21.52;47.87;102530.97;4973344;28;123959;-65
2022/07/06 07:24:51;;;;;;;2.55;0.93;;;;;;;21.62;47.73;102530.38;4980732;28;114791;-65
2022/07/06 07:27:18;;;;;;;3.15;1.45;;;;;;;21.70;47.51;102528.03;4970054;28;114082;-65
2022/07/06 07:29:45;;;;;;;2.15;0.80;;;;;;;21.75;47.32;102525.91;4988391;28;124083;-65
2022/07/06 07:32:12;;;;;;;2.63;1.08;;;;;;;21.81;47.06;102530.91;4974235;28;124235;-65
2022/07/06 07:34:40;;;;;;;3.00;1.10;;;;;;;21.83;46.85;102523.59;4975933;28;114576;-65
2022/07/06 07:37:07;;;;;;;2.85;1.10;;;;;;;21.88;46.92;102520.59;4989892;28;113999;-65
2022/07/06 07:39:34;;;;;;;2.00;1.00;;;;;;;21.97;46.78;102520.84;4987671;28;123860;-65
2022/07/06 07:42:01;;;;;;;2.88;1.00;;;;;;;22.04;46.56;102521.31;4975149;28;124642;-65
2022/07/06 07:44:28;;;;;;;2.72;1.00;;;;;;;22.12;46.59;102526.19;4985738;28;115555;-65
2022/07/06 07:46:55;;;;;;;4.22;1.20;;;;;;;22.19;46.31;102514.00;4989214;28;115048;-65
2022/07/06 07:49:22;;;;;;;2.20;1.02;;;;;;;22.29;46.43;102530.47;4988848;28;123909;-65
2022/07/06 07:51:50;;;;;;;2.63;1.20;;;;;;;22.40;46.29;102527.03;4983371;28;123699;-65
2022/07/06 07:54:17;;;;;;;3.55;1.08;;;;;;;22.48;46.09;102527.38;4977436;28;114700;-65
2022/07/06 07:56:44;;;;;;;1.55;1.05;;;;;;;22.60;46.13;102525.66;4972666;28;114092;-65
2022/07/06 07:59:12;;;;;;;3.42;1.00;;;;;;;22.69;45.92;102517.75;4980586;28;124650;-65
2022/07/06 08:01:41;;;;;;;4.15;1.25;;;;;;;22.78;45.67;102515.41;4983394;28;123183;-65
2022/07/06 08:04:08;;;;;;;4.15;1.02;;;;;;;22.88;45.45;102513.78;4983705;28;114465;-65
2022/07/06 08:06:35;;;;;;;2.67;0.80;;;;;;;22.98;45.03;102512.16;4966390;28;113901;-66
2022/07/06 08:09:04;;;;;;;5.47;1.02;;;;;;;23.04;44.52;102505.50;4985223;28;125017;-65
2022/07/06 08:11:31;;;;;;;3.35;1.15;;;;;;;23.03;44.14;102511.81;4977252;28;123675;-65
2022/07/06 08:13:59;;;;;;;2.65;0.70;;;;;;;23.05;43.82;102508.06;4986858;28;112784;-65
2022/07/06 08:16:26;;;;;;;2.53;0.60;;;;;;;23.05;43.70;102508.06;4989944;28;113692;-65
2022/07/06 08:18:53;;;;;;;1.20;0.70;;;;;;;23.12;43.48;102508.50;4991851;28;124717;-65
2022/07/06 08:21:20;;;;;;;1.73;0.70;;;;;;;23.16;43.58;102503.72;4990095;28;124215;-65
2022/07/06 08:23:52;;;;;;;2.30;0.80;;;;;;;23.26;43.64;102510.19;4991259;28;114967;-65
2022/07/06 08:26:19;;;;;;;2.40;0.90;;;;;;;23.40;43.69;102501.94;4983726;28;114330;-65
2022/07/06 08:28:46;;;;;;;0.88;0.60;;;;;;;23.50;42.82;102502.97;4974288;28;123402;-65
2022/07/06 08:31:14;;;;;;;3.80;0.90;;;;;;;23.60;42.53;102502.31;4991199;28;123760;-67
2022/07/06 08:34:01;;;;;;;2.10;0.70;;;;;;;23.68;42.40;102505.31;4986994;28;115248;-66
2022/07/06 08:36:29;;;;;;;1.30;0.60;;;;;;;23.79;42.53;102500.00;4977408;28;115184;-65
2022/07/06 08:38:57;;;;;;;1.00;0.50;;;;;;;23.94;41.87;102500.69;4975920;28;123998;-64
2022/07/06 08:41:29;;;;;;;3.53;0.70;;;;;;;24.04;41.39;102500.84;4971713;28;124065;-64
2022/07/06 08:43:56;;;;;;;2.10;0.70;;;;;;;24.03;41.60;102494.56;4990386;28;114723;-64
2022/07/06 08:46:23;;;;;;;1.85;0.70;;;;;;;23.97;41.15;102500.44;4975818;28;114335;-64
2022/07/06 08:48:51;;;;;;;0.65;0.55;;;;;;;23.84;40.65;102495.09;4989205;28;123984;-65
2022/07/06 08:51:20;;;;;;;2.22;0.60;;;;;;;23.71;40.58;102491.56;4992431;28;123061;-66
2022/07/06 08:53:54;;;;;;;1.45;0.68;;;;;;;23.66;40.85;102501.88;4988883;28;114038;-65
2022/07/06 08:56:22;;;;;;;2.15;0.80;;;;;;;23.67;41.28;102492.75;4977493;28;115193;-66
2022/07/06 08:58:49;;;;;;;2.30;0.70;;;;;;;23.73;41.54;102496.84;4973173;28;124061;-66
2022/07/06 09:01:17;;;;;;;4.40;0.90;;;;;;;23.79;41.22;102486.47;4979681;28;123873;-65
2022/07/06 09:03:48;;;;;;;2.05;0.73;;;;;;;23.91;41.04;102484.69;4985844;28;114088;-65
2022/07/06 09:06:24;;;;;;;1.75;0.60;;;;;;;24.02;40.39;102486.59;4981443;28;113457;-65
2022/07/06 09:08:54;;;;;;;1.58;0.68;;;;;;;24.12;40.63;102493.00;4981149;28;124567;-65
2022/07/06 09:11:22;;;;;;;1.30;0.50;;;;;;;24.23;40.35;102484.91;4980506;28;124458;-66
2022/07/06 09:13:52;;;;;;;1.95;0.70;;;;;;;24.34;40.08;102494.06;4989490;28;114697;-66
2022/07/06 09:16:27;;;;;;;1.65;0.50;;;;;;;24.36;39.72;102486.69;4982857;28;113869;-65
2022/07/06 09:19:11;;;;;;;2.67;0.40;;;;;;;24.31;39.04;102492.44;4982863;28;124413;-66
2022/07/06 09:21:39;;;;;;;2.38;1.10;;;;;;;24.23;38.87;102495.75;4980258;28;124252;-65
2022/07/06 09:24:08;;;;;;;0.98;0.50;;;;;;;24.21;39.04;102502.28;4986191;28;115003;-66
2022/07/06 09:26:36;;;;;;;1.75;0.70;;;;;;;24.21;39.12;102494.16;4980093;28;113787;-67
2022/07/06 09:29:04;;;;;;;2.83;0.70;;;;;;;24.26;39.33;102503.66;4992431;27;123204;-65
2022/07/06 09:31:32;;;;;;;1.80;0.80;;;;;;;24.38;39.71;102492.84;4981828;28;124164;-66
2022/07/06 09:34:08;;;;;;;3.60;0.70;;;;;;;24.51;39.07;102484.63;4969640;28;114597;-65
2022/07/06 09:36:42;;;;;;;1.58;0.60;;;;;;;24.63;38.77;102487.25;4980171;28;113865;-65
2022/07/06 09:39:29;;;;;;;1.25;0.60;;;;;;;24.74;38.72;102489.13;4988050;28;124150;-65
2022/07/06 09:42:01;;;;;;;1.60;0.57;;;;;;;24.80;37.87;102493.19;4983810;28;123709;-65
2022/07/06 09:44:33;;;;;;;0.65;0.45;;;;;;;24.82;38.06;102486.66;4984656;28;114407;-65
2022/07/06 09:47:03;;;;;;;1.77;0.40;;;;;;;24.90;37.62;102499.59;4988812;28;114414;-65
2022/07/06 09:49:30;;;;;;;1.33;0.50;;;;;;;25.02;36.48;102498.63;4983049;28;123921;-65
2022/07/06 09:51:59;;;;;;;1.20;0.50;;;;;;;25.11;36.02;102498.84;4978375;28;123778;-65
2022/07/06 09:54:26;;;;;;;1.67;0.40;;;;;;;25.20;36.33;102506.25;4980307;28;114139;-65
2022/07/06 09:56:55;;;;;;;0.93;0.40;;;;;;;25.30;36.00;102488.28;4988800;28;113948;-65
2022/07/06 09:59:25;;;;;;;0.82;0.40;;;;;;;25.42;35.83;102499.97;4987651;28;124521;-65
2022/07/06 10:02:00;;;;;;;0.70;0.40;;;;;;;25.49;35.54;102505.75;4984836;28;124356;-65
2022/07/06 10:04:29;;;;;;;1.58;0.40;;;;;;;25.50;35.45;102502.03;4991139;28;113098;-65
2022/07/06 10:06:58;;;;;;;3.47;0.68;;;;;;;25.43;35.11;102508.00;4986462;28;114110;-66
2022/07/06 10:09:28;;;;;;;0.57;0.40;;;;;;;25.35;35.51;102510.44;4976901;28;124044;-65
2022/07/06 10:12:00;;;;;;;3.03;0.60;;;;;;;25.29;35.49;102500.09;4975939;28;123639;-65
2022/07/06 10:14:32;;;;;;;1.20;0.40;;;;;;;25.24;35.85;102508.63;4970140;28;115120;-65
2022/07/06 10:17:01;;;;;;;2.00;0.70;;;;;;;25.23;35.54;102506.88;4985118;28;115652;-65
2022/07/06 10:19:30;;;;;;;2.28;0.60;;;;;;;25.25;35.65;102509.47;4989591;28;123456;-65
2022/07/06 10:22:02;;;;;;;1.83;0.60;;;;;;;25.29;35.33;102504.66;4978908;28;122867;-65
2022/07/06 10:24:30;;;;;;;2.38;0.55;;;;;;;25.32;35.73;102505.28;4981026;28;114523;-65
2022/07/06 10:26:58;;;;;;;2.20;0.80;;;;;;;25.35;34.89;102507.72;4984016;28;113798;-65
2022/07/06 10:29:25;;;;;;;1.08;0.50;;;;;;;25.31;35.03;102508.97;4975481;28;123954;-65
2022/07/06 10:31:54;;;;;;;2.30;0.50;;;;;;;25.29;35.10;102508.25;4990881;28;124161;-65
2022/07/06 10:34:21;;;;;;;1.77;0.50;;;;;;;25.24;35.27;102502.31;4976328;28;113570;-63
2022/07/06 10:36:53;;;;;;;1.25;0.50;;;;;;;25.21;35.48;102502.56;4977466;28;113828;-64
2022/07/06 10:42:40;;;;;;;1.15;0.60;;;;;;;25.04;35.29;102501.22;4977704;28;123831;-64
2022/07/06 10:45:10;;;;;;;1.50;0.50;;;;;;;25.00;34.95;102494.31;4988142;28;114410;-64
2022/07/06 10:47:37;;;;;;;1.42;0.63;;;;;;;25.00;34.89;102500.59;4978437;28;113853;-64
2022/07/06 10:50:05;;;;;;;1.05;0.60;;;;;;;24.98;34.83;102497.16;4986544;28;124591;-63
2022/07/06 10:52:49;;;;;;;2.75;0.50;;;;;;;24.95;35.46;102502.81;4987963;28;123903;-64
2022/07/06 10:55:34;;;;;;;2.75;0.55;;;;;;;24.98;35.37;102497.16;4973182;28;114303;-64
2022/07/06 10:58:02;;;;;;;2.07;0.60;;;;;;;24.98;35.13;102502.56;4969384;28;114511;-64
2022/07/06 11:00:52;;;;;;;2.47;0.63;;;;;;;24.91;35.35;102501.31;4988596;28;124217;-64
2022/07/06 11:03:38;;;;;;;1.85;0.60;;;;;;;24.85;35.19;102496.41;4977026;28;123717;-64
2022/07/06 11:06:07;;;;;;;2.67;0.68;;;;;;;24.83;35.68;102492.94;4969847;28;114373;-64
2022/07/06 11:08:45;;;;;;;2.38;0.77;;;;;;;24.87;35.93;102500.69;4974706;28;114182;-64
2022/07/06 11:11:30;;;;;;;3.13;0.77;;;;;;;24.93;35.84;102490.38;4987683;28;123983;-64
2022/07/06 11:14:04;;;;;;;2.03;0.70;;;;;;;24.97;35.70;102497.25;4987837;28;123838;-64
2022/07/06 11:16:47;;;;;;;2.20;0.80;;;;;;;24.97;35.48;102489.97;4980916;28;114807;-64
2022/07/06 11:19:16;;;;;;;0.93;0.50;;;;;;;24.96;35.26;102493.69;4987891;28;114153;-64
2022/07/06 11:21:52;;;;;;;2.67;0.80;;;;;;;24.96;34.99;102493.69;4989384;28;124026;-64
2022/07/06 11:24:21;;;;;;;2.15;0.68;;;;;;;24.94;35.42;102482.13;4990816;28;123772;-63
2022/07/06 11:26:50;;;;;;;1.00;0.55;;;;;;;24.97;35.27;102489.97;4988065;28;114144;-64
2022/07/06 11:29:20;;;;;;;2.70;0.60;;;;;;;25.01;35.36;102487.88;4988236;28;114342;-66
2022/07/06 11:31:50;;;;;;;1.67;0.40;;;;;;;25.02;35.57;102482.34;4976546;28;124092;-66